Time;durP1;ratioP1;P1;durP2;ratioP2;P2;SDS_P1;SDS_P2;PMS_P1;PMS_P2;Temp;Humidity;BMP_temperature;BMP_pressure;BME280_temperature;BME280_humidity;BME280_pressure;Samples;Min_cycle;Max_cycle;Signal;HPM_P1;HPM_P2
2023/07/23 00:00:21;;;;;;;9.98;5.43;;;15.00;99.90;;;;;;5101928;27;20501;-82
2023/07/23 00:02:47;;;;;;;9.95;5.53;;;15.00;99.90;;;;;;5102208;27;20051;-82
2023/07/23 00:05:12;;;;;;;7.78;5.00;;;15.00;99.90;;;;;;5108686;27;20039;-82
2023/07/23 00:07:38;;;;;;;7.70;5.15;;;15.00;99.90;;;;;;5111367;27;20039;-82
2023/07/23 00:10:04;;;;;;;10.05;5.65;;;15.00;99.90;;;;;;5097398;27;20043;-82
2023/07/23 00:12:29;;;;;;;6.82;4.35;;;14.90;99.90;;;;;;5084877;28;20119;-82
2023/07/23 00:14:55;;;;;;;9.07;5.25;;;15.00;99.90;;;;;;5099700;27;20031;-82
2023/07/23 00:17:21;;;;;;;10.10;5.13;;;14.90;99.90;;;;;;5108926;27;20126;-83
2023/07/23 00:19:46;;;;;;;7.18;4.80;;;14.90;99.90;;;;;;5086798;28;20031;-83
2023/07/23 00:22:15;;;;;;;10.65;5.38;;;14.90;99.90;;;;;;5105266;27;20040;-83
2023/07/23 00:24:42;;;;;;;8.13;4.85;;;14.90;99.90;;;;;;5095028;27;20178;-83
2023/07/23 00:27:10;;;;;;;9.27;5.25;;;14.90;99.90;;;;;;5084666;27;20040;-82
2023/07/23 00:29:35;;;;;;;11.73;5.35;;;14.90;99.90;;;;;;5104198;27;20032;-83
2023/07/23 00:32:01;;;;;;;8.65;5.43;;;14.90;99.90;;;;;;5098437;27;20046;-83
2023/07/23 00:34:27;;;;;;;10.52;5.55;;;14.90;99.90;;;;;;5088226;27;20040;-83
2023/07/23 00:36:53;;;;;;;10.27;5.60;;;14.80;99.90;;;;;;5094505;27;20046;-83
2023/07/23 00:39:18;;;;;;;10.50;5.78;;;14.80;99.90;;;;;;5095876;27;20339;-83
2023/07/23 00:41:44;;;;;;;10.15;5.63;;;14.80;99.90;;;;;;5093746;27;20039;-83
2023/07/23 00:44:10;;;;;;;10.85;5.57;;;14.80;99.90;;;;;;5119464;27;20054;-83
2023/07/23 00:46:35;;;;;;;9.63;6.07;;;14.80;99.90;;;;;;5107825;27;20039;-83
2023/07/23 00:49:01;;;;;;;9.60;5.43;;;14.80;99.90;;;;;;5093988;27;20035;-83
2023/07/23 00:51:29;;;;;;;10.57;5.43;;;14.80;99.90;;;;;;5111667;27;20039;-83
2023/07/23 00:53:55;;;;;;;11.27;5.85;;;14.80;99.90;;;;;;5107729;27;20139;-83
2023/07/23 00:56:21;;;;;;;9.45;5.68;;;14.80;99.90;;;;;;5102949;27;20141;-82
2023/07/23 00:58:47;;;;;;;9.40;5.57;;;14.80;99.90;;;;;;5095393;27;20066;-83
2023/07/23 01:01:13;;;;;;;9.95;5.85;;;14.80;99.90;;;;;;5103254;27;20042;-83
2023/07/23 01:03:39;;;;;;;8.10;4.93;;;14.80;99.90;;;;;;5102353;27;20422;-83
2023/07/23 01:06:06;;;;;;;9.10;5.70;;;14.80;99.90;;;;;;5087988;27;20050;-83
2023/07/23 01:08:33;;;;;;;9.95;5.50;;;14.70;99.90;;;;;;5116589;27;20039;-82
2023/07/23 01:11:00;;;;;;;9.93;5.90;;;14.80;99.90;;;;;;5103595;27;20495;-83
2023/07/23 01:13:26;;;;;;;10.05;6.22;;;14.80;99.90;;;;;;5119342;27;20050;-83
2023/07/23 01:15:53;;;;;;;11.80;5.85;;;14.70;99.90;;;;;;5119478;27;20835;-83
2023/07/23 01:18:20;;;;;;;11.77;6.15;;;14.70;99.90;;;;;;5100064;27;20061;-83
2023/07/23 01:20:46;;;;;;;9.98;6.20;;;14.80;99.90;;;;;;5083931;27;20407;-83
2023/07/23 01:23:11;;;;;;;12.05;5.32;;;14.80;99.90;;;;;;5086234;27;20055;-83
2023/07/23 01:25:37;;;;;;;8.27;5.13;;;14.70;99.90;;;;;;5087522;27;20106;-84
2023/07/23 01:28:03;;;;;;;12.13;6.15;;;14.70;99.90;;;;;;5085052;27;20465;-83
2023/07/23 01:30:31;;;;;;;10.65;5.70;;;14.70;99.90;;;;;;5095755;27;20039;-83
2023/07/23 01:32:57;;;;;;;11.48;5.70;;;14.80;99.90;;;;;;5086081;27;20267;-83
2023/07/23 01:35:24;;;;;;;10.05;5.47;;;14.80;99.90;;;;;;5087469;27;20491;-83
2023/07/23 01:37:50;;;;;;;11.98;6.03;;;14.80;99.90;;;;;;5102822;27;20302;-84
2023/07/23 01:40:16;;;;;;;9.05;5.63;;;14.80;99.90;;;;;;5116464;27;20390;-84
2023/07/23 01:42:45;;;;;;;10.95;5.53;;;14.80;99.90;;;;;;5092181;27;20051;-83
2023/07/23 01:45:12;;;;;;;9.88;5.53;;;14.80;99.90;;;;;;5100661;27;20474;-84
2023/07/23 01:47:38;;;;;;;9.68;5.30;;;14.80;99.90;;;;;;5104016;27;20085;-84
2023/07/23 01:50:04;;;;;;;9.82;4.90;;;14.80;99.90;;;;;;5081913;28;20228;-83
2023/07/23 01:52:30;;;;;;;9.27;5.50;;;14.80;99.90;;;;;;5078661;27;20447;-84
2023/07/23 01:54:56;;;;;;;9.30;5.40;;;14.80;99.90;;;;;;5096510;27;20470;-84
2023/07/23 01:57:22;;;;;;;10.23;5.20;;;14.80;99.90;;;;;;5084780;27;20042;-84
2023/07/23 01:59:47;;;;;;;8.43;4.65;;;14.80;99.90;;;;;;5096044;27;20035;-84
2023/07/23 02:02:13;;;;;;;7.28;4.75;;;14.80;99.90;;;;;;5107421;27;20047;-83
2023/07/23 02:04:39;;;;;;;7.20;5.00;;;14.80;99.90;;;;;;5089304;27;20039;-84
2023/07/23 02:07:04;;;;;;;10.45;5.28;;;14.80;99.90;;;;;;5111153;27;20051;-84
2023/07/23 02:09:30;;;;;;;10.60;5.07;;;14.80;99.90;;;;;;5106436;27;20035;-84
2023/07/23 02:11:55;;;;;;;9.20;4.82;;;14.80;99.90;;;;;;5099853;27;20536;-84
2023/07/23 02:14:21;;;;;;;8.80;4.75;;;14.80;99.90;;;;;;5108206;27;20035;-84
2023/07/23 02:16:47;;;;;;;8.27;4.75;;;14.80;99.90;;;;;;5102319;27;20031;-84
2023/07/23 02:19:13;;;;;;;8.77;5.10;;;14.90;99.90;;;;;;5092834;27;20039;-84
2023/07/23 02:21:38;;;;;;;8.85;5.13;;;14.90;99.90;;;;;;5099671;27;20042;-84
2023/07/23 02:24:05;;;;;;;7.50;4.50;;;14.90;99.90;;;;;;5080655;27;20039;-84
2023/07/23 02:26:31;;;;;;;8.35;4.90;;;14.90;99.90;;;;;;5109040;27;20454;-84
2023/07/23 02:28:57;;;;;;;8.52;5.30;;;14.90;99.90;;;;;;5100560;27;20123;-83
2023/07/23 02:31:23;;;;;;;9.43;4.68;;;14.80;99.90;;;;;;5103970;28;20110;-83
2023/07/23 02:33:48;;;;;;;8.38;5.03;;;14.80;99.90;;;;;;5098086;27;20055;-83
2023/07/23 02:36:14;;;;;;;8.55;4.63;;;14.80;99.90;;;;;;5097949;28;20071;-83
2023/07/23 02:38:39;;;;;;;8.68;4.90;;;14.80;99.90;;;;;;5099167;28;20031;-83
2023/07/23 02:41:06;;;;;;;9.30;4.55;;;14.90;99.90;;;;;;5083411;28;20067;-82
2023/07/23 02:43:32;;;;;;;8.02;5.18;;;14.90;99.90;;;;;;5086620;28;20451;-82
2023/07/23 02:45:58;;;;;;;9.27;5.38;;;14.80;99.90;;;;;;5086166;28;20119;-83
2023/07/23 02:48:23;;;;;;;8.25;5.15;;;14.80;99.90;;;;;;5078932;28;20383;-82
2023/07/23 02:50:51;;;;;;;11.32;5.50;;;14.80;99.90;;;;;;5097190;28;20494;-83
2023/07/23 02:53:16;;;;;;;10.45;5.32;;;14.80;99.90;;;;;;5098114;28;20036;-82
2023/07/23 02:55:43;;;;;;;8.05;5.30;;;14.80;99.90;;;;;;5114467;28;20107;-83
2023/07/23 02:58:09;;;;;;;11.40;5.28;;;14.80;99.90;;;;;;5092980;28;20131;-83
2023/07/23 03:00:35;;;;;;;8.80;5.53;;;14.80;99.90;;;;;;5090849;28;20122;-83
2023/07/23 03:03:00;;;;;;;12.95;6.15;;;14.80;99.90;;;;;;5106662;28;20040;-83
2023/07/23 03:05:26;;;;;;;9.98;5.82;;;14.90;99.90;;;;;;5105746;28;20339;-83
2023/07/23 03:07:52;;;;;;;11.18;5.88;;;14.80;99.90;;;;;;5089904;28;20043;-83
2023/07/23 03:10:18;;;;;;;9.93;5.85;;;14.80;99.90;;;;;;5072544;28;20084;-83
2023/07/23 03:12:44;;;;;;;8.05;5.22;;;14.80;99.90;;;;;;5109637;27;20036;-82
2023/07/23 03:15:10;;;;;;;8.73;5.60;;;14.80;99.90;;;;;;5112797;27;20411;-82
2023/07/23 03:17:35;;;;;;;11.77;6.22;;;14.80;99.90;;;;;;5112411;27;20491;-82
2023/07/23 03:20:01;;;;;;;10.38;6.30;;;14.90;99.90;;;;;;5091382;27;20047;-82
2023/07/23 03:22:26;;;;;;;9.73;5.80;;;14.90;99.90;;;;;;5110501;27;20400;-82
2023/07/23 03:24:52;;;;;;;10.50;5.72;;;14.90;99.90;;;;;;5107850;27;20031;-83
2023/07/23 03:27:18;;;;;;;13.70;6.70;;;14.90;99.90;;;;;;5088139;28;20437;-83
2023/07/23 03:29:43;;;;;;;9.30;5.50;;;14.90;99.90;;;;;;5085795;28;20035;-83
2023/07/23 03:32:09;;;;;;;14.80;6.95;;;14.90;99.90;;;;;;5098496;27;20262;-83
2023/07/23 03:34:35;;;;;;;11.32;6.00;;;14.90;99.90;;;;;;5086239;27;20038;-83
2023/07/23 03:37:00;;;;;;;12.25;7.25;;;14.90;99.90;;;;;;5083710;27;20039;-83
2023/07/23 03:39:26;;;;;;;12.65;6.68;;;14.90;99.90;;;;;;5104301;27;20118;-83
2023/07/23 03:41:52;;;;;;;12.88;6.50;;;14.90;99.90;;;;;;5099531;27;20047;-83
2023/07/23 03:44:17;;;;;;;14.38;7.15;;;14.90;99.90;;;;;;5096911;27;20489;-82
2023/07/23 03:47:09;;;;;;;11.00;6.45;;;14.90;99.90;;;;;;5103323;27;20640;-83
2023/07/23 03:49:34;;;;;;;12.82;6.43;;;14.90;99.90;;;;;;5096602;27;20313;-83
2023/07/23 03:52:00;;;;;;;11.98;6.18;;;14.90;99.90;;;;;;5103439;27;20513;-83
2023/07/23 03:54:26;;;;;;;11.55;6.72;;;14.90;99.90;;;;;;5105996;27;20082;-83
2023/07/23 03:56:53;;;;;;;12.68;6.63;;;14.90;99.90;;;;;;5103267;27;20067;-83
2023/07/23 03:59:21;;;;;;;10.18;6.18;;;14.90;99.90;;;;;;5104807;27;20044;-83
2023/07/23 04:01:47;;;;;;;13.55;7.30;;;14.90;99.90;;;;;;5102251;27;20111;-82
2023/07/23 04:04:16;;;;;;;13.40;6.50;;;14.90;99.90;;;;;;5090870;27;20036;-83
2023/07/23 04:06:45;;;;;;;11.27;7.18;;;14.90;99.90;;;;;;5103087;27;20039;-82
2023/07/23 04:09:13;;;;;;;10.35;7.13;;;14.90;99.90;;;;;;5094738;27;20107;-82
2023/07/23 04:11:39;;;;;;;9.45;6.53;;;14.90;99.90;;;;;;5085727;27;20035;-82
2023/07/23 04:14:06;;;;;;;11.10;6.55;;;14.90;99.90;;;;;;5084185;27;20061;-82
2023/07/23 04:16:35;;;;;;;11.40;6.95;;;14.90;99.90;;;;;;5105387;27;20110;-82
2023/07/23 04:19:04;;;;;;;10.98;6.43;;;14.90;99.90;;;;;;5115444;27;20051;-83
2023/07/23 04:21:29;;;;;;;12.50;6.53;;;14.90;99.90;;;;;;5094776;27;20088;-83
2023/07/23 04:23:57;;;;;;;13.65;6.55;;;14.90;99.90;;;;;;5086961;27;20051;-83
2023/07/23 04:26:25;;;;;;;12.00;6.63;;;15.00;99.90;;;;;;5106588;27;20040;-83
2023/07/23 04:28:52;;;;;;;11.70;6.70;;;15.00;99.90;;;;;;5096242;27;20044;-82
2023/07/23 04:31:18;;;;;;;11.43;6.57;;;15.00;99.90;;;;;;5107674;27;20027;-83
2023/07/23 04:33:44;;;;;;;10.45;6.72;;;15.00;99.90;;;;;;5086047;27;20520;-83
2023/07/23 04:36:11;;;;;;;11.07;6.43;;;15.00;99.90;;;;;;5093211;27;20031;-83
2023/07/23 04:38:37;;;;;;;11.82;6.57;;;15.00;99.90;;;;;;5110012;27;20043;-84
2023/07/23 04:41:03;;;;;;;11.70;6.82;;;15.00;99.90;;;;;;5088159;27;20487;-84
2023/07/23 04:43:28;;;;;;;10.73;6.60;;;15.00;99.90;;;;;;5109556;27;20059;-84
2023/07/23 04:45:54;;;;;;;11.85;7.45;;;15.00;99.90;;;;;;5096478;27;20802;-83
2023/07/23 04:48:20;;;;;;;10.30;6.22;;;15.00;99.90;;;;;;5103478;27;20493;-83
2023/07/23 04:50:45;;;;;;;13.48;6.65;;;15.00;99.90;;;;;;5102903;27;20036;-83
2023/07/23 04:53:11;;;;;;;14.27;6.80;;;15.10;99.90;;;;;;5100809;27;20121;-83
2023/07/23 04:55:37;;;;;;;12.02;6.65;;;15.10;99.90;;;;;;5090842;27;20039;-83
2023/07/23 04:58:03;;;;;;;10.65;6.93;;;15.10;99.90;;;;;;5105425;27;20114;-83
2023/07/23 05:00:29;;;;;;;12.68;6.88;;;15.10;99.90;;;;;;5096936;27;20049;-83
2023/07/23 05:02:55;;;;;;;10.80;7.15;;;15.00;99.90;;;;;;5102744;27;20039;-83
2023/07/23 05:05:20;;;;;;;12.52;7.45;;;15.10;99.90;;;;;;5107018;27;20384;-83
2023/07/23 05:07:46;;;;;;;15.40;7.45;;;15.00;99.90;;;;;;5096765;27;20402;-84
2023/07/23 05:10:11;;;;;;;12.82;7.07;;;15.10;99.90;;;;;;5085183;27;20058;-84
2023/07/23 05:12:39;;;;;;;10.05;6.65;;;15.10;99.90;;;;;;5099088;27;20453;-83
2023/07/23 05:15:15;;;;;;;12.77;7.70;;;15.10;99.90;;;;;;5102058;27;20040;-83
2023/07/23 05:17:41;;;;;;;11.07;7.30;;;15.20;99.90;;;;;;5083480;27;20036;-83
2023/07/23 05:20:08;;;;;;;11.23;7.32;;;15.20;99.90;;;;;;5080132;27;20038;-84
2023/07/23 05:22:39;;;;;;;11.68;7.65;;;15.20;99.90;;;;;;5076535;28;20277;-83
2023/07/23 05:25:05;;;;;;;10.95;6.93;;;15.20;99.90;;;;;;5086375;27;20043;-84
2023/07/23 05:27:31;;;;;;;14.75;7.07;;;15.30;99.90;;;;;;5097037;27;20085;-84
2023/07/23 05:29:57;;;;;;;11.90;7.45;;;15.30;99.90;;;;;;5093837;27;20047;-83
2023/07/23 05:32:23;;;;;;;10.57;7.47;;;15.30;99.90;;;;;;5104469;27;20040;-83
2023/07/23 05:34:49;;;;;;;13.00;7.50;;;15.30;99.90;;;;;;5110848;27;20441;-83
2023/07/23 05:37:14;;;;;;;11.45;7.03;;;15.30;99.90;;;;;;5102101;27;20517;-83
2023/07/23 05:39:40;;;;;;;11.43;7.63;;;15.30;99.90;;;;;;5099558;27;20032;-83
2023/07/23 05:42:06;;;;;;;12.20;7.90;;;15.30;99.90;;;;;;5103146;27;20104;-83
2023/07/23 05:44:32;;;;;;;13.80;7.35;;;15.30;99.90;;;;;;5106310;27;20546;-83
2023/07/23 05:46:58;;;;;;;13.48;7.20;;;15.30;99.90;;;;;;5132270;27;20547;-83
2023/07/23 05:49:28;;;;;;;12.27;8.02;;;15.40;99.90;;;;;;5089195;27;20040;-83
2023/07/23 05:51:54;;;;;;;11.98;7.10;;;15.40;99.90;;;;;;5111990;27;20062;-83
2023/07/23 05:54:20;;;;;;;11.48;7.00;;;15.50;99.90;;;;;;5104229;27;20095;-83
2023/07/23 05:56:45;;;;;;;11.63;7.30;;;15.50;99.90;;;;;;5086947;27;20035;-83
2023/07/23 05:59:11;;;;;;;12.32;7.55;;;15.50;99.90;;;;;;5095310;27;20035;-83
2023/07/23 06:01:37;;;;;;;11.15;7.10;;;15.50;99.90;;;;;;5093245;27;20042;-83
2023/07/23 06:04:02;;;;;;;12.55;7.60;;;15.60;99.90;;;;;;5083297;27;20410;-83
2023/07/23 06:06:29;;;;;;;11.38;7.75;;;15.60;99.90;;;;;;5092096;27;20148;-83
2023/07/23 06:08:55;;;;;;;12.88;7.40;;;15.60;99.90;;;;;;5102212;27;20467;-83
2023/07/23 06:11:21;;;;;;;11.65;7.38;;;15.60;99.90;;;;;;5086528;27;20497;-83
2023/07/23 06:13:47;;;;;;;12.52;7.57;;;15.60;99.90;;;;;;5097218;27;20303;-83
2023/07/23 06:16:13;;;;;;;11.88;7.75;;;15.70;99.90;;;;;;5083855;27;20103;-82
2023/07/23 06:18:39;;;;;;;10.73;7.68;;;15.70;99.90;;;;;;5092740;27;20035;-83
2023/07/23 06:21:04;;;;;;;12.38;7.57;;;15.80;99.90;;;;;;5089547;27;20122;-83
2023/07/23 06:23:31;;;;;;;12.27;7.93;;;15.90;99.90;;;;;;5098433;27;20126;-83
2023/07/23 06:25:57;;;;;;;13.25;8.18;;;16.00;99.90;;;;;;5094617;27;20031;-83
2023/07/23 06:28:23;;;;;;;11.50;7.28;;;15.90;99.90;;;;;;5085021;27;20047;-83
2023/07/23 06:30:53;;;;;;;12.82;8.23;;;16.00;99.90;;;;;;5080956;27;20039;-83
2023/07/23 06:33:19;;;;;;;10.82;7.25;;;16.00;99.90;;;;;;5103953;27;20589;-83
2023/07/23 06:35:46;;;;;;;12.23;7.97;;;16.10;99.90;;;;;;5104363;27;20469;-84
2023/07/23 06:38:13;;;;;;;13.85;8.00;;;16.00;99.90;;;;;;5096370;27;20064;-83
2023/07/23 06:40:50;;;;;;;10.35;7.00;;;16.10;99.90;;;;;;5084650;27;20112;-83
2023/07/23 06:43:16;;;;;;;16.33;8.30;;;16.10;99.90;;;;;;5088913;27;20046;-83
2023/07/23 06:45:47;;;;;;;13.10;7.88;;;16.20;99.90;;;;;;5099188;27;20042;-83
2023/07/23 06:48:14;;;;;;;11.10;7.18;;;16.30;99.90;;;;;;5111042;27;20126;-82
2023/07/23 06:50:41;;;;;;;12.88;7.93;;;16.20;99.90;;;;;;5102905;27;20479;-82
2023/07/23 06:53:06;;;;;;;12.63;7.60;;;16.30;99.90;;;;;;5091158;27;20092;-81
2023/07/23 06:55:59;;;;;;;12.02;7.22;;;16.30;99.90;;;;;;5120026;27;20036;-81
2023/07/23 06:58:27;;;;;;;13.60;7.22;;;16.30;99.90;;;;;;5116578;27;20050;-81
2023/07/23 07:00:53;;;;;;;13.52;7.75;;;16.30;99.90;;;;;;5125462;27;20099;-81
2023/07/23 07:03:18;;;;;;;11.23;7.45;;;16.30;99.90;;;;;;5100033;27;20068;-81
2023/07/23 07:05:44;;;;;;;11.00;7.10;;;16.30;99.90;;;;;;5092417;27;20565;-81
2023/07/23 07:08:09;;;;;;;11.23;7.43;;;16.30;99.90;;;;;;5111205;27;20070;-81
2023/07/23 07:10:35;;;;;;;13.52;7.60;;;16.30;99.90;;;;;;5129271;27;20550;-81
2023/07/23 07:13:01;;;;;;;13.77;7.80;;;16.30;99.90;;;;;;5097006;27;20565;-81
2023/07/23 07:15:26;;;;;;;12.23;7.72;;;16.20;99.90;;;;;;5089916;27;20041;-81
2023/07/23 07:17:52;;;;;;;11.40;7.55;;;16.30;99.90;;;;;;5087328;27;20032;-80
2023/07/23 07:20:18;;;;;;;11.43;7.25;;;16.30;99.90;;;;;;5103945;27;20038;-82
2023/07/23 07:22:43;;;;;;;12.13;7.60;;;16.30;99.90;;;;;;5085235;27;20466;-81
2023/07/23 07:25:12;;;;;;;14.25;7.95;;;16.30;99.90;;;;;;5093485;27;20042;-82
2023/07/23 07:27:40;;;;;;;12.50;7.70;;;16.40;99.90;;;;;;5085109;27;20251;-81
2023/07/23 07:30:07;;;;;;;11.77;7.50;;;16.50;99.90;;;;;;5086139;27;20043;-83
2023/07/23 07:32:32;;;;;;;11.30;6.93;;;16.50;99.90;;;;;;5108800;27;20075;-84
2023/07/23 07:34:58;;;;;;;14.25;7.63;;;16.50;99.90;;;;;;5102234;27;20118;-84
2023/07/23 07:37:24;;;;;;;13.27;7.38;;;16.50;99.90;;;;;;5085959;27;20040;-84
2023/07/23 07:39:50;;;;;;;13.60;7.70;;;16.60;99.90;;;;;;5090732;27;20039;-84
2023/07/23 07:42:16;;;;;;;14.15;7.72;;;16.60;99.90;;;;;;5110753;27;20049;-85
2023/07/23 07:44:42;;;;;;;13.75;7.40;;;16.50;99.90;;;;;;5092555;27;20069;-84
2023/07/23 07:47:07;;;;;;;11.00;6.68;;;16.60;99.90;;;;;;5087848;27;20043;-84
2023/07/23 07:49:33;;;;;;;11.25;6.60;;;16.60;99.90;;;;;;5108281;27;20038;-84
2023/07/23 07:51:59;;;;;;;10.30;7.38;;;16.70;99.90;;;;;;5091902;27;20095;-84
2023/07/23 07:54:25;;;;;;;13.45;7.78;;;16.80;99.90;;;;;;5099199;27;20521;-84
2023/07/23 07:56:51;;;;;;;15.40;7.13;;;16.90;99.90;;;;;;5109085;27;20439;-83
2023/07/23 07:59:17;;;;;;;11.63;7.30;;;16.90;99.90;;;;;;5094234;27;20039;-84
2023/07/23 08:01:43;;;;;;;13.82;7.50;;;17.00;99.90;;;;;;5117101;27;20376;-84
2023/07/23 08:04:10;;;;;;;13.30;7.63;;;16.90;99.90;;;;;;5105623;27;20034;-83
2023/07/23 08:06:37;;;;;;;13.18;8.13;;;16.80;99.90;;;;;;5117140;27;20131;-83
2023/07/23 08:09:03;;;;;;;13.95;6.90;;;16.80;99.90;;;;;;5094653;27;20066;-84
2023/07/23 08:11:30;;;;;;;11.65;6.50;;;16.70;99.90;;;;;;5088162;27;20059;-84
2023/07/23 08:13:57;;;;;;;11.02;7.05;;;16.80;99.90;;;;;;5093526;27;20049;-84
2023/07/23 08:16:23;;;;;;;10.88;6.43;;;16.70;99.90;;;;;;5108369;27;20034;-84
2023/07/23 08:18:49;;;;;;;12.45;6.85;;;16.70;99.90;;;;;;5109646;27;20346;-84
2023/07/23 08:21:14;;;;;;;10.70;6.60;;;16.70;99.90;;;;;;5115758;27;20057;-85
2023/07/23 08:23:40;;;;;;;12.27;7.15;;;16.70;99.90;;;;;;5107452;27;20031;-85
2023/07/23 08:26:07;;;;;;;14.15;7.18;;;16.70;99.90;;;;;;5093699;27;20450;-84
2023/07/23 08:28:39;;;;;;;10.15;6.95;;;16.70;99.90;;;;;;5103516;27;20107;-84
2023/07/23 08:31:05;;;;;;;10.63;7.10;;;16.90;99.90;;;;;;5110325;27;20055;-85
2023/07/23 08:33:31;;;;;;;10.10;6.80;;;16.90;99.90;;;;;;5087761;27;20612;-84
2023/07/23 08:35:59;;;;;;;10.82;7.00;;;16.90;99.90;;;;;;5109240;27;20117;-83
2023/07/23 08:38:26;;;;;;;10.60;7.07;;;16.70;99.90;;;;;;5096809;27;20045;-84
2023/07/23 08:41:03;;;;;;;9.43;6.82;;;16.70;99.90;;;;;;5107995;27;20118;-84
2023/07/23 08:43:52;;;;;;;11.23;6.88;;;16.70;99.90;;;;;;5099962;27;20189;-83
2023/07/23 08:46:22;;;;;;;10.65;7.05;;;16.70;99.90;;;;;;5088557;27;20043;-84
2023/07/23 08:49:01;;;;;;;10.13;6.68;;;16.80;99.90;;;;;;5104780;27;20639;-83
2023/07/23 08:51:35;;;;;;;9.27;6.60;;;16.80;99.90;;;;;;5092174;27;20039;-83
2023/07/23 08:54:02;;;;;;;11.48;7.03;;;16.80;99.90;;;;;;5133535;27;20370;-83
2023/07/23 08:56:28;;;;;;;12.45;8.13;;;16.80;99.90;;;;;;5113256;27;20408;-83
2023/07/23 08:58:54;;;;;;;10.40;6.35;;;16.70;99.90;;;;;;5102103;27;20043;-83
2023/07/23 09:01:20;;;;;;;10.02;6.60;;;16.80;99.90;;;;;;5092079;27;20035;-83
2023/07/23 09:03:45;;;;;;;11.88;6.53;;;16.80;99.90;;;;;;5118694;27;20035;-83
2023/07/23 09:06:11;;;;;;;9.32;6.68;;;16.70;99.90;;;;;;5086502;27;20043;-83
2023/07/23 09:08:37;;;;;;;9.77;6.20;;;16.70;99.90;;;;;;5085243;27;20480;-83
2023/07/23 09:11:09;;;;;;;9.57;6.50;;;16.80;99.90;;;;;;5094821;27;20047;-83
2023/07/23 09:13:36;;;;;;;10.23;6.68;;;16.90;99.90;;;;;;5099887;27;20265;-82
2023/07/23 09:16:03;;;;;;;10.90;6.60;;;17.00;99.90;;;;;;5093120;27;20028;-83
2023/07/23 09:18:29;;;;;;;9.55;6.25;;;16.80;99.90;;;;;;5091870;27;20044;-83
2023/07/23 09:20:56;;;;;;;11.75;6.55;;;16.90;99.90;;;;;;5110384;27;20108;-83
2023/07/23 09:23:25;;;;;;;9.32;6.65;;;17.10;99.90;;;;;;5093580;27;20049;-82
2023/07/23 09:25:50;;;;;;;14.98;6.72;;;17.00;99.90;;;;;;5083730;27;20118;-82
2023/07/23 09:28:28;;;;;;;9.02;6.05;;;17.20;99.90;;;;;;5093934;27;20442;-83
2023/07/23 09:30:54;;;;;;;10.25;6.57;;;17.00;99.90;;;;;;5092112;27;20111;-82
2023/07/23 09:33:20;;;;;;;10.13;6.32;;;17.20;99.90;;;;;;5095530;27;20043;-82
2023/07/23 09:35:46;;;;;;;12.27;5.85;;;17.10;99.90;;;;;;5107506;27;20035;-82
2023/07/23 09:38:15;;;;;;;9.73;5.88;;;17.10;99.90;;;;;;5109680;27;20039;-82
2023/07/23 09:40:42;;;;;;;10.55;6.28;;;17.30;99.90;;;;;;5083138;27;20371;-82
2023/07/23 09:43:08;;;;;;;8.25;5.53;;;17.20;99.90;;;;;;5085371;27;20059;-82
2023/07/23 09:45:41;;;;;;;8.73;5.63;;;17.30;99.90;;;;;;5101965;27;20124;-82
2023/07/23 09:48:16;;;;;;;8.82;5.60;;;17.20;99.90;;;;;;5101075;27;20046;-82
2023/07/23 09:50:42;;;;;;;9.20;5.50;;;17.40;99.90;;;;;;5124706;27;20039;-82
2023/07/23 09:53:13;;;;;;;8.23;5.60;;;17.20;99.90;;;;;;5123607;27;20512;-82
2023/07/23 09:55:39;;;;;;;10.50;5.50;;;17.20;99.90;;;;;;5087950;27;20125;-82
2023/07/23 09:58:06;;;;;;;7.75;5.45;;;17.10;99.90;;;;;;5091288;27;20042;-82
2023/07/23 10:00:33;;;;;;;8.70;5.43;;;17.10;99.90;;;;;;5095543;27;20455;-82
2023/07/23 10:03:01;;;;;;;8.88;5.70;;;17.00;99.90;;;;;;5090975;27;20073;-82
2023/07/23 10:05:28;;;;;;;8.48;5.50;;;16.90;99.90;;;;;;5125918;27;20090;-82
2023/07/23 10:07:54;;;;;;;7.75;5.75;;;17.00;99.90;;;;;;5106842;27;20039;-82
2023/07/23 10:10:20;;;;;;;8.32;5.50;;;16.90;99.90;;;;;;5087759;27;20554;-82
2023/07/23 10:12:46;;;;;;;7.55;4.90;;;16.90;99.90;;;;;;5093888;27;20036;-82
2023/07/23 10:15:12;;;;;;;8.88;5.03;;;17.00;99.90;;;;;;5102887;27;20039;-82
2023/07/23 10:17:54;;;;;;;8.52;5.38;;;16.90;99.90;;;;;;5102978;27;20034;-82
2023/07/23 10:20:21;;;;;;;8.80;5.88;;;17.00;99.90;;;;;;5122744;27;20035;-81
2023/07/23 10:22:48;;;;;;;7.68;5.72;;;17.00;99.90;;;;;;5087063;27;20550;-82
2023/07/23 10:25:32;;;;;;;8.07;5.53;;;16.90;99.90;;;;;;5105443;27;20058;-82
2023/07/23 10:28:06;;;;;;;7.78;5.45;;;17.00;99.90;;;;;;5096835;27;20122;-82
2023/07/23 10:30:36;;;;;;;10.68;5.20;;;17.00;99.90;;;;;;5093690;27;20485;-82
2023/07/23 10:33:11;;;;;;;11.20;5.47;;;16.90;99.90;;;;;;5090114;27;20375;-82
2023/07/23 10:35:55;;;;;;;9.45;5.50;;;17.10;99.90;;;;;;5080671;27;20208;-82
2023/07/23 10:38:21;;;;;;;8.15;5.15;;;17.00;99.90;;;;;;5093449;27;20403;-82
2023/07/23 10:40:47;;;;;;;7.70;5.57;;;17.20;99.90;;;;;;5104384;27;20035;-82
2023/07/23 10:43:13;;;;;;;7.97;5.07;;;17.10;99.90;;;;;;5095109;27;20110;-82
2023/07/23 10:45:49;;;;;;;10.50;4.82;;;17.10;99.90;;;;;;5112463;27;20054;-82
2023/07/23 10:48:18;;;;;;;8.77;5.60;;;17.20;99.90;;;;;;5105698;27;20043;-82
2023/07/23 10:51:02;;;;;;;6.82;5.30;;;17.30;99.90;;;;;;5109247;27;20046;-82
2023/07/23 10:53:31;;;;;;;8.15;5.22;;;17.50;99.90;;;;;;5109399;27;20098;-82
2023/07/23 10:56:00;;;;;;;7.28;5.20;;;17.40;99.90;;;;;;5088120;27;20455;-82
2023/07/23 10:58:27;;;;;;;11.50;5.88;;;17.40;99.90;;;;;;5086589;27;20046;-82
2023/07/23 11:00:54;;;;;;;7.32;5.32;;;17.40;99.90;;;;;;5085608;27;20136;-82
2023/07/23 11:03:22;;;;;;;9.80;5.50;;;17.40;99.90;;;;;;5098956;27;20093;-83
2023/07/23 11:05:48;;;;;;;7.65;5.50;;;17.40;99.90;;;;;;5088526;27;20039;-82
2023/07/23 11:08:18;;;;;;;8.90;5.68;;;17.40;99.90;;;;;;5085551;27;20068;-82
2023/07/23 11:10:55;;;;;;;10.55;5.78;;;17.40;99.90;;;;;;5111600;27;20051;-82
2023/07/23 11:13:21;;;;;;;7.38;5.45;;;17.60;99.90;;;;;;5124014;27;20043;-82
2023/07/23 11:15:47;;;;;;;8.90;5.22;;;17.60;99.90;;;;;;5103430;27;20039;-82
2023/07/23 11:18:13;;;;;;;8.20;5.97;;;17.60;99.90;;;;;;5093727;27;20034;-82
2023/07/23 11:20:50;;;;;;;9.05;5.43;;;17.60;99.90;;;;;;5089564;27;20316;-82
2023/07/23 11:23:17;;;;;;;8.55;5.68;;;17.80;99.90;;;;;;5102278;27;20115;-82
2023/07/23 11:25:47;;;;;;;8.73;5.97;;;17.80;99.90;;;;;;5099750;27;20062;-82
2023/07/23 11:28:13;;;;;;;9.07;5.85;;;17.90;99.90;;;;;;5119418;27;20395;-82
2023/07/23 11:30:39;;;;;;;8.05;5.10;;;17.90;99.90;;;;;;5087814;27;20036;-82
2023/07/23 11:33:05;;;;;;;8.57;5.72;;;17.90;99.90;;;;;;5094247;27;20538;-82
2023/07/23 11:35:31;;;;;;;7.10;5.22;;;18.10;99.90;;;;;;5124781;27;20067;-82
2023/07/23 11:38:04;;;;;;;8.50;5.68;;;18.00;99.90;;;;;;5083505;27;20035;-82
2023/07/23 11:40:30;;;;;;;7.00;5.50;;;17.80;99.90;;;;;;5111638;27;20554;-83
2023/07/23 11:42:56;;;;;;;9.88;5.85;;;17.80;99.90;;;;;;5116192;27;20051;-82
2023/07/23 11:45:22;;;;;;;7.72;5.10;;;17.80;99.90;;;;;;5105295;27;20038;-82
2023/07/23 11:47:54;;;;;;;7.72;5.15;;;17.80;99.90;;;;;;5113539;27;20050;-82
2023/07/23 11:50:20;;;;;;;7.30;5.07;;;17.80;99.90;;;;;;5121278;27;20387;-82
2023/07/23 11:52:48;;;;;;;7.45;5.47;;;17.80;99.90;;;;;;5100289;27;20043;-82
2023/07/23 11:55:26;;;;;;;7.28;4.78;;;17.70;99.90;;;;;;5108862;27;20428;-83
2023/07/23 11:57:57;;;;;;;10.00;5.72;;;17.90;99.90;;;;;;5107594;27;20113;-82
2023/07/23 12:00:28;;;;;;;7.07;5.07;;;17.90;99.90;;;;;;5107387;27;20042;-81
2023/07/23 12:02:56;;;;;;;7.85;5.05;;;17.70;99.90;;;;;;5108334;27;20038;-83
2023/07/23 12:05:22;;;;;;;8.43;5.13;;;17.80;99.90;;;;;;5098920;27;20035;-83
2023/07/23 12:07:48;;;;;;;6.70;4.80;;;17.70;99.90;;;;;;5110150;27;20041;-83
2023/07/23 12:10:15;;;;;;;6.18;4.85;;;17.70;99.90;;;;;;5102439;27;20511;-83
2023/07/23 12:12:46;;;;;;;6.50;4.95;;;17.70;99.90;;;;;;5094598;27;20406;-83
2023/07/23 12:15:17;;;;;;;7.80;5.10;;;17.80;99.90;;;;;;5091787;27;20430;-82
2023/07/23 12:17:44;;;;;;;6.78;4.72;;;17.80;99.90;;;;;;5120820;27;20082;-82
2023/07/23 12:20:17;;;;;;;6.30;4.20;;;17.90;99.90;;;;;;5104399;27;20113;-82
2023/07/23 12:22:54;;;;;;;6.32;4.78;;;18.00;99.90;;;;;;5119505;27;20035;-83
2023/07/23 12:25:21;;;;;;;6.63;4.85;;;18.10;99.90;;;;;;5132221;27;20038;-82
2023/07/23 12:27:47;;;;;;;8.23;5.07;;;18.90;99.90;;;;;;5092760;27;20042;-83
2023/07/23 12:30:17;;;;;;;10.57;5.22;;;19.40;99.90;;;;;;5092192;27;20058;-83
2023/07/23 12:32:44;;;;;;;6.07;4.47;;;19.80;99.90;;;;;;5100067;27;20639;-83
2023/07/23 12:35:10;;;;;;;6.65;4.47;;;19.80;99.90;;;;;;5088627;27;20037;-83
2023/07/23 12:37:36;;;;;;;5.60;4.25;;;20.20;99.90;;;;;;5123811;27;20042;-83
2023/07/23 12:40:06;;;;;;;6.63;4.85;;;20.90;99.90;;;;;;5090046;27;20031;-83